createdAt,value
2019-02-07T00:01:43.895Z,21.33
2019-02-07T00:03:48.794Z,20.50
2019-02-07T00:05:54.077Z,22.00
2019-02-07T00:08:00.740Z,29.17
2019-02-07T00:10:07.359Z,27.30
2019-02-07T00:12:12.411Z,24.07
2019-02-07T00:14:17.516Z,21.40
2019-02-07T00:16:22.393Z,23.80
2019-02-07T00:18:28.452Z,25.80
2019-02-07T00:20:33.901Z,23.70
2019-02-07T00:22:39.375Z,23.53
2019-02-07T00:24:44.926Z,24.53
2019-02-07T00:26:49.960Z,25.03
2019-02-07T00:28:54.950Z,27.40
2019-02-07T00:31:00.040Z,22.20
2019-02-07T00:33:05.199Z,27.60
2019-02-07T00:35:10.988Z,24.43
2019-02-07T00:37:16.301Z,20.90
2019-02-07T00:39:21.693Z,23.67
2019-02-07T00:41:27.365Z,26.03
2019-02-07T00:43:33.105Z,27.10
2019-02-07T00:45:40.018Z,23.33
2019-02-07T00:47:45.239Z,23.17
2019-02-07T00:49:53.788Z,23.87
2019-02-07T00:51:59.141Z,25.47
2019-02-07T00:54:05.713Z,25.27
2019-02-07T00:56:11.049Z,20.93
2019-02-07T00:58:16.494Z,26.10
2019-02-07T01:00:23.168Z,31.93
2019-02-07T01:02:28.823Z,23.80
2019-02-07T01:04:33.820Z,27.80
2019-02-07T01:06:38.829Z,28.20
2019-02-07T01:08:43.938Z,29.43
2019-02-07T01:10:49.187Z,25.90
2019-02-07T01:12:54.106Z,25.47
2019-02-07T01:15:02.301Z,24.90
2019-02-07T01:17:05.850Z,31.57
2019-02-07T01:19:15.589Z,27.43
2019-02-07T01:21:21.132Z,28.00
2019-02-07T01:23:25.951Z,27.20
2019-02-07T01:25:30.738Z,28.03
2019-02-07T01:27:35.582Z,27.67
2019-02-07T01:29:40.651Z,27.60
2019-02-07T01:31:46.058Z,28.77
2019-02-07T01:33:50.942Z,27.27
2019-02-07T01:35:56.057Z,32.20
2019-02-07T01:38:01.330Z,27.93
2019-02-07T01:40:08.376Z,25.33
2019-02-07T01:42:13.442Z,25.37
2019-02-07T01:44:18.220Z,25.20
2019-02-07T01:46:23.303Z,26.57
2019-02-07T01:48:28.501Z,23.60
2019-02-07T01:50:33.331Z,26.33
2019-02-07T01:52:38.693Z,30.40
2019-02-07T01:54:45.051Z,27.23
2019-02-07T01:56:50.038Z,27.87
2019-02-07T01:58:54.924Z,22.57
2019-02-07T02:00:59.706Z,25.63
2019-02-07T02:03:04.681Z,27.30
2019-02-07T02:05:11.716Z,27.73
2019-02-07T02:07:16.654Z,25.03
2019-02-07T02:09:21.799Z,30.23
2019-02-07T02:11:26.672Z,28.47
2019-02-07T02:13:31.582Z,29.80
2019-02-07T02:15:36.700Z,29.80
2019-02-07T02:17:42.087Z,27.50
2019-02-07T02:19:47.135Z,27.00
2019-02-07T02:21:52.346Z,24.70
2019-02-07T02:23:57.087Z,28.43
2019-02-07T02:26:01.996Z,26.60
2019-02-07T02:28:07.101Z,30.00
2019-02-07T02:30:34.745Z,31.33
2019-02-07T02:32:39.918Z,31.13
2019-02-07T02:34:44.892Z,30.13
2019-02-07T02:36:49.669Z,29.47
2019-02-07T02:38:54.511Z,29.57
2019-02-07T02:40:59.646Z,27.03
2019-02-07T02:43:04.721Z,31.33
2019-02-07T02:45:13.018Z,25.90
2019-02-07T02:47:17.917Z,30.23
2019-02-07T02:49:22.853Z,24.87
2019-02-07T02:51:27.685Z,26.80
2019-02-07T02:53:32.641Z,28.03
2019-02-07T02:55:39.314Z,29.60
2019-02-07T02:57:57.445Z,31.23
2019-02-07T03:00:02.228Z,27.07
2019-02-07T03:02:26.380Z,30.97
2019-02-07T03:04:52.882Z,25.73
2019-02-07T03:07:25.088Z,30.07
2019-02-07T03:10:00.989Z,28.67
2019-02-07T03:12:23.634Z,30.30
2019-02-07T03:14:47.356Z,33.00
2019-02-07T03:17:10.536Z,28.77
2019-02-07T03:19:34.170Z,33.00
2019-02-07T03:21:52.884Z,29.60
2019-02-07T03:24:25.510Z,29.70
2019-02-07T03:26:41.970Z,27.47
2019-02-07T03:29:08.405Z,36.03
2019-02-07T03:31:30.654Z,27.73
2019-02-07T03:33:54.339Z,33.37
2019-02-07T03:36:10.384Z,30.97
2019-02-07T03:38:52.148Z,33.73
2019-02-07T03:41:06.862Z,34.83
2019-02-07T03:43:32.619Z,31.40
2019-02-07T03:45:43.546Z,31.03
2019-02-07T03:48:07.171Z,31.50
2019-02-07T03:50:36.121Z,30.50
2019-02-07T03:53:05.681Z,33.57
2019-02-07T03:55:36.154Z,32.53
2019-02-07T03:58:03.035Z,31.37
2019-02-07T04:00:34.488Z,28.67
2019-02-07T04:03:03.633Z,34.77
2019-02-07T04:05:45.703Z,32.47
2019-02-07T04:08:14.050Z,31.80
2019-02-07T04:10:29.859Z,31.43
2019-02-07T04:12:52.551Z,29.73
2019-02-07T04:15:18.061Z,25.03
2019-02-07T04:17:35.194Z,32.13
2019-02-07T04:20:02.034Z,28.23
2019-02-07T04:22:24.565Z,33.83
2019-02-07T04:24:47.936Z,35.03
2019-02-07T04:27:06.057Z,26.80
2019-02-07T04:29:28.592Z,30.00
2019-02-07T04:31:42.665Z,31.30
2019-02-07T04:34:05.719Z,30.67
2019-02-07T04:36:22.136Z,27.70
2019-02-07T04:38:58.190Z,33.50
2019-02-07T04:41:21.905Z,25.47
2019-02-07T04:43:37.599Z,27.97
2019-02-07T04:45:53.712Z,26.60
2019-02-07T04:48:15.841Z,30.10
2019-02-07T04:50:52.036Z,27.10
2019-02-07T04:53:31.009Z,20.17
2019-02-07T04:56:04.222Z,24.80
2019-02-07T04:58:26.587Z,29.17
2019-02-07T05:00:53.104Z,24.00
2019-02-07T05:03:19.300Z,24.73
2019-02-07T05:05:51.768Z,21.97
2019-02-07T05:08:11.166Z,25.87
2019-02-07T05:10:47.212Z,23.07
2019-02-07T05:13:03.509Z,28.90
2019-02-07T05:15:26.627Z,28.87
2019-02-07T05:17:49.162Z,26.63
2019-02-07T05:20:28.175Z,22.17
2019-02-07T05:22:52.739Z,21.77
2019-02-07T05:25:15.357Z,21.27
2019-02-07T05:27:43.970Z,24.70
2019-02-07T05:29:52.805Z,20.63
2019-02-07T05:32:07.912Z,23.53
2019-02-07T05:34:35.452Z,24.50
2019-02-07T05:36:59.119Z,19.90
2019-02-07T05:39:26.213Z,20.30
2019-02-07T05:41:54.026Z,17.30
2019-02-07T05:44:23.491Z,24.20
2019-02-07T05:46:51.235Z,23.70
2019-02-07T05:49:27.061Z,20.07
2019-02-07T05:51:59.589Z,21.23
2019-02-07T05:54:38.726Z,16.40
2019-02-07T05:56:53.273Z,20.43
2019-02-07T05:59:15.566Z,21.23
2019-02-07T06:01:58.062Z,19.20
2019-02-07T06:04:12.440Z,15.37
2019-02-07T06:06:54.731Z,20.77
2019-02-07T06:09:18.431Z,20.53
2019-02-07T06:11:41.975Z,17.00
2019-02-07T06:14:08.461Z,15.80
2019-02-07T06:16:47.231Z,13.13
2019-02-07T06:19:16.818Z,12.77
2019-02-07T06:21:38.887Z,12.07
2019-02-07T06:24:01.016Z,10.10
2019-02-07T06:26:15.798Z,10.57
2019-02-07T06:29:02.177Z,9.40
2019-02-07T06:31:22.704Z,8.67
2019-02-07T06:33:36.519Z,10.63
2019-02-07T06:36:12.729Z,10.60
2019-02-07T06:38:36.459Z,10.40
2019-02-07T06:41:15.238Z,12.80
2019-02-07T06:43:35.432Z,9.70
2019-02-07T06:45:50.806Z,8.40
2019-02-07T06:48:29.582Z,5.97
2019-02-07T06:51:05.044Z,7.73
2019-02-07T06:53:27.156Z,10.30
2019-02-07T06:55:53.933Z,5.57
2019-02-07T06:58:16.002Z,8.67
2019-02-07T07:00:45.843Z,4.93
2019-02-07T07:03:04.816Z,4.43
2019-02-07T07:05:41.500Z,11.90
2019-02-07T07:08:08.036Z,3.83
2019-02-07T07:10:35.318Z,5.53
2019-02-07T07:13:07.568Z,4.00
2019-02-07T07:15:29.839Z,3.33
2019-02-07T07:17:55.234Z,3.70
2019-02-07T07:20:30.860Z,3.13
2019-02-07T07:23:12.856Z,4.70
2019-02-07T07:25:29.413Z,2.83
2019-02-07T07:27:53.034Z,3.00
2019-02-07T07:30:31.816Z,2.60
2019-02-07T07:32:55.611Z,2.63
2019-02-07T07:35:19.230Z,3.90
2019-02-07T07:37:42.939Z,2.90
2019-02-07T07:40:05.365Z,1.93
2019-02-07T07:42:40.818Z,3.03
2019-02-07T07:44:59.632Z,3.33
2019-02-07T07:47:35.738Z,1.93
2019-02-07T07:50:01.255Z,1.80
2019-02-07T07:52:29.101Z,1.80
2019-02-07T07:54:52.728Z,1.83
2019-02-07T07:57:10.740Z,3.03
2019-02-07T07:59:34.737Z,1.70
2019-02-07T08:02:16.594Z,1.50
2019-02-07T08:04:38.919Z,1.50
2019-02-07T08:06:52.441Z,1.90
2019-02-07T08:09:31.523Z,1.90
2019-02-07T08:11:55.152Z,1.70
2019-02-07T08:14:17.444Z,1.50
2019-02-07T08:16:50.058Z,5.37
2019-02-07T08:19:19.531Z,1.70
2019-02-07T08:21:43.198Z,1.60
2019-02-07T08:24:25.430Z,1.97
2019-02-07T08:27:04.226Z,2.27
2019-02-07T08:29:28.015Z,3.20
2019-02-07T08:31:50.202Z,4.67
2019-02-07T08:34:12.285Z,4.10
2019-02-07T08:36:32.529Z,11.30
2019-02-07T08:38:55.106Z,9.73
2019-02-07T08:41:34.177Z,14.20
2019-02-07T08:44:03.662Z,20.63
2019-02-07T08:46:42.605Z,20.27
2019-02-07T08:48:57.248Z,19.20
2019-02-07T08:51:19.715Z,14.53
2019-02-07T08:53:52.367Z,16.90
2019-02-07T08:56:08.979Z,21.27
2019-02-07T08:58:44.857Z,18.67
2019-02-07T09:01:23.614Z,19.70
2019-02-07T09:03:47.516Z,19.40
2019-02-07T09:06:17.259Z,28.67
2019-02-07T09:08:49.914Z,19.57
2019-02-07T09:11:23.046Z,28.47
2019-02-07T09:13:53.798Z,44.73
2019-02-07T09:16:16.006Z,44.97
2019-02-07T09:18:38.408Z,33.70
2019-02-07T09:21:10.981Z,24.30
2019-02-07T09:23:47.698Z,29.67
2019-02-07T09:26:09.743Z,24.03
2019-02-07T09:28:36.259Z,26.97
2019-02-07T09:31:00.739Z,27.63
2019-02-07T09:33:21.123Z,20.83
2019-02-07T09:35:41.514Z,22.43
2019-02-07T09:38:03.556Z,29.13
2019-02-07T09:40:25.444Z,21.93
2019-02-07T09:42:37.405Z,25.67
2019-02-07T09:44:59.803Z,20.60
2019-02-07T09:47:16.539Z,20.33
2019-02-07T09:49:41.587Z,22.10
2019-02-07T09:52:16.079Z,23.00
2019-02-07T09:54:42.571Z,26.20
2019-02-07T09:56:55.629Z,25.67
2019-02-07T09:59:19.276Z,21.43
2019-02-07T10:01:40.792Z,23.53
2019-02-07T10:04:00.739Z,20.40
2019-02-07T10:06:27.288Z,26.80
2019-02-07T10:08:53.883Z,28.00
2019-02-07T10:11:09.281Z,30.60
2019-02-07T10:13:30.352Z,35.47
2019-02-07T10:15:52.409Z,23.93
2019-02-07T10:18:15.008Z,28.27
2019-02-07T10:20:37.496Z,29.13
2019-02-07T10:23:16.515Z,22.10
2019-02-07T10:25:40.421Z,28.17
2019-02-07T10:28:01.834Z,20.10
2019-02-07T10:30:27.552Z,18.90
2019-02-07T10:32:57.028Z,26.07
2019-02-07T10:35:22.617Z,20.50
2019-02-07T10:37:30.464Z,24.37
2019-02-07T10:39:49.221Z,20.53
2019-02-07T10:42:24.346Z,31.60
2019-02-07T10:44:38.887Z,21.60
2019-02-07T10:47:01.052Z,22.33
2019-02-07T10:49:27.785Z,25.77
2019-02-07T10:51:50.535Z,22.33
2019-02-07T10:54:23.412Z,26.80
2019-02-07T10:56:47.406Z,26.80
2019-02-07T10:59:08.980Z,24.77
2019-02-07T11:01:30.679Z,18.80
2019-02-07T11:03:58.305Z,28.57
2019-02-07T11:06:14.390Z,24.13
2019-02-07T11:08:38.296Z,20.07
2019-02-07T11:11:05.155Z,24.53
2019-02-07T11:13:27.513Z,29.67
2019-02-07T11:15:52.595Z,24.50
2019-02-07T11:18:15.331Z,22.13
2019-02-07T11:20:54.120Z,19.20
2019-02-07T11:23:11.598Z,21.87
2019-02-07T11:25:38.121Z,26.00
2019-02-07T11:27:57.761Z,23.33
2019-02-07T11:30:27.952Z,22.90
2019-02-07T11:33:18.665Z,30.73
2019-02-07T11:35:37.740Z,19.77
2019-02-07T11:38:07.831Z,27.83
2019-02-07T11:40:29.165Z,26.77
2019-02-07T11:43:11.447Z,24.83
2019-02-07T11:45:44.633Z,17.43
2019-02-07T11:48:17.474Z,17.73
2019-02-07T11:50:44.366Z,22.37
2019-02-07T11:53:09.321Z,18.60
2019-02-07T11:55:30.916Z,20.33
2019-02-07T11:57:42.044Z,20.90
2019-02-07T12:00:14.952Z,23.00
2019-02-07T12:02:38.768Z,22.60
2019-02-07T12:05:11.756Z,19.50
2019-02-07T12:07:32.166Z,22.47
2019-02-07T12:09:46.576Z,24.17
2019-02-07T12:12:20.776Z,12.30
2019-02-07T12:14:34.646Z,20.23
2019-02-07T12:16:59.174Z,23.10
2019-02-07T12:19:21.560Z,19.43
2019-02-07T12:21:43.852Z,28.57
2019-02-07T12:24:11.870Z,33.47
2019-02-07T12:26:41.703Z,19.07
2019-02-07T12:29:04.917Z,26.93
2019-02-07T12:31:46.720Z,33.53
2019-02-07T12:34:05.920Z,17.80
2019-02-07T12:36:20.923Z,18.50
2019-02-07T12:38:51.764Z,18.00
2019-02-07T12:41:22.023Z,14.80
2019-02-07T12:43:46.541Z,20.00
2019-02-07T12:46:22.112Z,15.70
2019-02-07T12:48:53.709Z,14.00
2019-02-07T12:51:16.398Z,19.03
2019-02-07T12:53:38.799Z,18.67
2019-02-07T12:56:03.704Z,16.00
2019-02-07T12:58:27.138Z,15.43
2019-02-07T13:00:47.846Z,15.43
2019-02-07T13:03:14.986Z,19.30
2019-02-07T13:05:40.561Z,15.10
2019-02-07T13:08:07.728Z,19.20
2019-02-07T13:10:45.450Z,18.60
2019-02-07T13:13:08.341Z,14.90
2019-02-07T13:15:33.549Z,13.13
2019-02-07T13:18:09.265Z,10.40
2019-02-07T13:20:34.158Z,15.23
2019-02-07T13:22:58.457Z,14.90
2019-02-07T13:25:18.063Z,17.23
2019-02-07T13:27:54.322Z,22.40
2019-02-07T13:30:28.896Z,18.33
2019-02-07T13:32:50.049Z,17.53
2019-02-07T13:35:25.858Z,16.20
2019-02-07T13:37:49.347Z,14.00
2019-02-07T13:40:11.802Z,14.40
2019-02-07T13:42:44.822Z,16.40
2019-02-07T13:45:13.817Z,11.80
2019-02-07T13:47:43.413Z,13.83
2019-02-07T13:50:09.562Z,11.70
2019-02-07T13:52:29.668Z,9.53
2019-02-07T13:55:02.424Z,10.23
2019-02-07T13:57:29.788Z,13.33
2019-02-07T13:59:58.686Z,14.50
2019-02-07T14:02:22.501Z,11.40
2019-02-07T14:04:39.327Z,16.73
2019-02-07T14:07:02.051Z,10.67
2019-02-07T14:09:28.608Z,18.00
2019-02-07T14:11:44.496Z,10.20
2019-02-07T14:14:06.673Z,14.83
2019-02-07T14:16:33.929Z,13.20
2019-02-07T14:18:50.937Z,12.63
2019-02-07T14:21:14.489Z,15.60
2019-02-07T14:23:46.972Z,13.87
2019-02-07T14:26:25.045Z,12.00
2019-02-07T14:28:49.507Z,10.50
2019-02-07T14:31:13.121Z,12.13
2019-02-07T14:36:56.027Z,17.43
2019-02-07T14:39:53.829Z,11.90
2019-02-07T14:42:29.628Z,14.57
2019-02-07T14:45:05.317Z,19.03
2019-02-07T14:47:13.472Z,15.00
2019-02-07T14:49:21.954Z,11.90
2019-02-07T14:51:59.037Z,13.50
2019-02-07T14:54:04.592Z,9.13
2019-02-07T14:56:16.582Z,16.30
2019-02-07T14:58:24.530Z,17.23
2019-02-07T15:00:30.240Z,12.53
2019-02-07T15:02:36.768Z,15.73
2019-02-07T15:04:41.618Z,11.73
2019-02-07T15:06:47.860Z,15.77
2019-02-07T15:08:53.824Z,14.80
2019-02-07T15:10:58.633Z,11.90
2019-02-07T15:13:06.015Z,11.37
2019-02-07T15:15:16.588Z,20.20
2019-02-07T15:17:23.278Z,19.97
2019-02-07T15:19:28.463Z,16.40
2019-02-07T15:21:34.871Z,10.33
2019-02-07T15:23:40.082Z,23.30
2019-02-07T15:25:44.896Z,14.93
2019-02-07T15:27:50.217Z,19.47
2019-02-07T15:29:55.710Z,29.13
2019-02-07T15:32:00.574Z,20.83
2019-02-07T15:34:07.783Z,14.57
2019-02-07T15:36:12.967Z,20.13
2019-02-07T15:38:23.180Z,21.67
2019-02-07T15:40:25.823Z,15.80
2019-02-07T15:42:32.227Z,23.33
2019-02-07T15:44:37.627Z,23.40
2019-02-07T15:46:42.545Z,19.30
2019-02-07T15:48:47.730Z,16.77
2019-02-07T15:50:52.610Z,37.70
2019-02-07T15:53:00.366Z,25.57
2019-02-07T15:55:08.437Z,10.93
2019-02-07T15:57:13.354Z,12.80
2019-02-07T15:59:26.865Z,11.60
2019-02-07T16:01:49.381Z,20.70
2019-02-07T16:04:09.418Z,12.57
2019-02-07T16:06:15.069Z,18.97
2019-02-07T16:08:20.314Z,8.13
2019-02-07T16:10:25.695Z,11.30
2019-02-07T16:12:30.944Z,14.57
2019-02-07T16:14:35.790Z,14.63
2019-02-07T16:16:40.776Z,22.20
2019-02-07T16:18:46.113Z,14.23
2019-02-07T16:20:52.181Z,25.00
2019-02-07T16:22:58.985Z,27.50
2019-02-07T16:25:03.820Z,12.80
2019-02-07T16:27:09.320Z,23.47
2019-02-07T16:29:17.549Z,11.83
2019-02-07T16:31:22.452Z,8.60
2019-02-07T16:33:27.288Z,8.70
2019-02-07T16:35:32.411Z,15.30
2019-02-07T16:37:37.220Z,10.90
2019-02-07T16:39:42.391Z,10.37
2019-02-07T16:41:47.317Z,12.40
2019-02-07T16:43:52.235Z,17.33
2019-02-07T16:45:57.058Z,13.40
2019-02-07T16:48:01.858Z,11.43
2019-02-07T16:50:08.778Z,18.73
2019-02-07T16:52:13.831Z,12.70
2019-02-07T16:54:18.867Z,13.53
2019-02-07T16:56:23.987Z,5.63
2019-02-07T16:58:28.754Z,24.03
2019-02-07T17:00:33.853Z,21.03
2019-02-07T17:02:38.890Z,7.30
2019-02-07T17:04:43.739Z,9.90
2019-02-07T17:06:48.496Z,9.37
2019-02-07T17:08:53.393Z,12.07
2019-02-07T17:10:58.457Z,15.23
2019-02-07T17:13:03.360Z,11.60
2019-02-07T17:15:11.477Z,11.90
2019-02-07T17:17:16.253Z,9.33
2019-02-07T17:19:21.234Z,15.20
2019-02-07T17:21:26.291Z,12.63
2019-02-07T17:23:31.678Z,14.00
2019-02-07T17:25:37.166Z,16.20
2019-02-07T17:27:42.036Z,8.03
2019-02-07T17:29:47.545Z,8.70
2019-02-07T17:31:52.749Z,13.57
2019-02-07T17:33:57.607Z,13.63
2019-02-07T17:36:24.673Z,13.00
2019-02-07T17:38:31.549Z,15.93
2019-02-07T17:40:36.439Z,12.87
2019-02-07T17:42:43.539Z,7.43
2019-02-07T17:44:48.527Z,9.30
2019-02-07T17:46:54.761Z,9.63
2019-02-07T17:49:00.503Z,13.43
2019-02-07T17:51:06.585Z,8.77
2019-02-07T17:53:11.784Z,10.40
2019-02-07T17:55:17.716Z,15.77
2019-02-07T17:57:22.815Z,5.20
2019-02-07T17:59:30.111Z,4.93
2019-02-07T18:01:35.352Z,6.57
2019-02-07T18:03:40.341Z,5.13
2019-02-07T18:05:45.570Z,11.60
2019-02-07T18:07:50.578Z,8.03
2019-02-07T18:09:58.176Z,9.03
2019-02-07T18:12:03.144Z,11.40
2019-02-07T18:14:08.353Z,10.47
2019-02-07T18:16:13.593Z,15.53
2019-02-07T18:18:18.336Z,12.70
2019-02-07T18:20:23.346Z,9.70
2019-02-07T18:22:28.148Z,11.07
2019-02-07T18:24:33.303Z,14.90
2019-02-07T18:26:38.380Z,7.03
2019-02-07T18:28:43.493Z,16.00
2019-02-07T18:30:48.395Z,6.10
2019-02-07T18:32:53.204Z,18.73
2019-02-07T18:34:58.153Z,14.67
2019-02-07T18:37:03.028Z,10.57
2019-02-07T18:39:09.890Z,14.63
2019-02-07T18:41:14.662Z,9.37
2019-02-07T18:43:19.461Z,6.87
2019-02-07T18:45:24.894Z,10.43
2019-02-07T18:47:32.786Z,5.00
2019-02-07T18:49:37.758Z,3.90
2019-02-07T18:51:45.565Z,7.23
2019-02-07T18:53:49.184Z,8.83
2019-02-07T18:55:56.463Z,5.30
2019-02-07T18:58:00.390Z,10.53
2019-02-07T19:00:07.369Z,9.90
2019-02-07T19:02:17.564Z,8.10
2019-02-07T19:04:30.684Z,6.17
2019-02-07T19:06:37.480Z,9.03
2019-02-07T19:08:42.781Z,9.13
2019-02-07T19:10:48.113Z,7.10
2019-02-07T19:12:53.232Z,5.70
2019-02-07T19:14:58.687Z,11.90
2019-02-07T19:17:04.140Z,8.77
2019-02-07T19:19:12.664Z,7.93
2019-02-07T19:21:18.008Z,11.43
2019-02-07T19:23:33.887Z,8.47
2019-02-07T19:25:42.371Z,7.13
2019-02-07T19:27:48.089Z,7.43
2019-02-07T19:29:53.401Z,11.37
2019-02-07T19:31:58.322Z,11.10
2019-02-07T19:34:03.124Z,10.23
2019-02-07T19:36:08.550Z,15.23
2019-02-07T19:38:13.773Z,8.93
2019-02-07T19:40:36.288Z,13.70
2019-02-07T19:42:42.477Z,16.30
2019-02-07T19:44:47.846Z,12.33
2019-02-07T19:46:55.840Z,11.13
2019-02-07T19:49:00.769Z,10.20
2019-02-07T19:51:13.925Z,3.57
2019-02-07T19:53:28.607Z,5.03
2019-02-07T19:55:32.949Z,16.80
2019-02-07T19:57:40.113Z,11.20
2019-02-07T19:59:45.165Z,8.00
2019-02-07T20:01:50.019Z,6.83
2019-02-07T20:03:55.057Z,7.40
2019-02-07T20:06:00.552Z,7.53
2019-02-07T20:08:05.651Z,7.50
2019-02-07T20:10:13.546Z,7.70
2019-02-07T20:12:19.730Z,8.53
2019-02-07T20:14:25.041Z,10.80
2019-02-07T20:16:30.344Z,7.27
2019-02-07T20:18:35.485Z,7.50
2019-02-07T20:20:40.710Z,6.20
2019-02-07T20:22:46.067Z,6.43
2019-02-07T20:24:52.189Z,6.40
2019-02-07T20:26:57.445Z,13.10
2019-02-07T20:29:02.394Z,6.90
2019-02-07T20:31:08.446Z,6.40
2019-02-07T20:33:13.616Z,3.80
2019-02-07T20:35:18.514Z,6.10
2019-02-07T20:37:23.492Z,4.60
2019-02-07T20:39:28.226Z,12.47
2019-02-07T20:41:34.653Z,9.70
2019-02-07T20:43:39.674Z,9.70
2019-02-07T20:45:44.661Z,5.30
2019-02-07T20:47:49.959Z,8.87
2019-02-07T20:49:55.191Z,5.47
2019-02-07T20:52:00.038Z,10.50
2019-02-07T20:54:04.885Z,5.07
2019-02-07T20:56:10.081Z,8.57
2019-02-07T20:58:14.898Z,6.30
2019-02-07T21:00:31.067Z,9.47
2019-02-07T21:02:36.230Z,7.90
2019-02-07T21:04:41.318Z,10.23
2019-02-07T21:06:46.171Z,11.60
2019-02-07T21:08:50.933Z,8.13
2019-02-07T21:10:55.744Z,9.47
2019-02-07T21:13:01.116Z,5.03
2019-02-07T21:15:08.239Z,11.97
2019-02-07T21:17:13.613Z,7.60
2019-02-07T21:19:19.559Z,6.77
2019-02-07T21:21:24.392Z,10.30
2019-02-07T21:23:29.488Z,7.27
2019-02-07T21:25:40.086Z,10.70
2019-02-07T21:27:45.264Z,9.13
2019-02-07T21:29:50.380Z,11.80
2019-02-07T21:31:55.102Z,6.13
2019-02-07T21:34:00.254Z,9.23
2019-02-07T21:36:06.170Z,9.23
2019-02-07T21:38:11.317Z,5.50
2019-02-07T21:40:18.746Z,6.90
2019-02-07T21:42:23.554Z,6.17
2019-02-07T21:44:28.353Z,6.83
2019-02-07T21:46:33.420Z,8.43
2019-02-07T21:48:38.403Z,6.03
2019-02-07T21:50:43.423Z,6.90
2019-02-07T21:52:48.758Z,4.67
2019-02-07T21:54:53.535Z,6.97
2019-02-07T21:56:58.399Z,17.37
2019-02-07T21:59:03.434Z,7.73
2019-02-07T22:01:09.357Z,3.80
2019-02-07T22:03:15.306Z,12.47
2019-02-07T22:05:20.193Z,4.30
2019-02-07T22:07:25.067Z,4.17
2019-02-07T22:09:29.796Z,7.80
2019-02-07T22:11:34.544Z,5.77
2019-02-07T22:13:39.295Z,9.40
2019-02-07T22:15:44.360Z,5.43
2019-02-07T22:17:49.126Z,5.00
2019-02-07T22:19:53.903Z,11.13
2019-02-07T22:21:58.942Z,7.20
2019-02-07T22:24:03.743Z,5.67
2019-02-07T22:26:08.633Z,7.23
2019-02-07T22:28:13.735Z,5.80
2019-02-07T22:30:23.852Z,6.10
2019-02-07T22:32:28.591Z,7.50
2019-02-07T22:34:34.028Z,8.90
2019-02-07T22:36:38.791Z,7.37
2019-02-07T22:38:44.071Z,8.17
2019-02-07T22:40:48.914Z,9.37
2019-02-07T22:42:54.016Z,3.63
2019-02-07T22:44:59.040Z,5.97
2019-02-07T22:47:03.797Z,9.47
2019-02-07T22:49:08.701Z,9.67
2019-02-07T22:51:13.639Z,3.87
2019-02-07T22:53:18.397Z,5.63
2019-02-07T22:55:24.093Z,9.20
2019-02-07T22:57:28.928Z,3.90
2019-02-07T22:59:34.669Z,6.60
2019-02-07T23:01:51.524Z,6.93
2019-02-07T23:03:58.828Z,4.87
2019-02-07T23:06:03.588Z,11.77
2019-02-07T23:08:08.358Z,8.73
2019-02-07T23:10:13.133Z,5.70
2019-02-07T23:12:17.860Z,10.23
2019-02-07T23:14:22.959Z,6.57
2019-02-07T23:16:27.935Z,6.97
2019-02-07T23:18:32.760Z,7.93
2019-02-07T23:20:38.354Z,4.63
2019-02-07T23:22:43.535Z,7.63
2019-02-07T23:24:48.458Z,8.80
2019-02-07T23:26:53.465Z,5.83
2019-02-07T23:28:59.563Z,12.40
2019-02-07T23:31:06.007Z,3.73
2019-02-07T23:33:10.968Z,12.13
2019-02-07T23:35:16.189Z,7.50
2019-02-07T23:37:21.435Z,4.53
2019-02-07T23:39:27.327Z,6.60
2019-02-07T23:41:32.124Z,7.20
2019-02-07T23:43:37.858Z,4.77
2019-02-07T23:45:42.986Z,6.30
2019-02-07T23:47:50.658Z,8.20
2019-02-07T23:49:57.045Z,4.83
2019-02-07T23:52:02.566Z,5.57
2019-02-07T23:54:14.973Z,6.93
2019-02-07T23:56:19.759Z,6.77
2019-02-07T23:58:25.391Z,6.63
